sensor_id;sensor_type;location;lat;lon;timestamp;P1;durP1;ratioP1;P2;durP2;ratioP2
60038;SDS011;45916;52.734;6.544;2023-08-06T00:00:23;18.27;;;16.25;;
60038;SDS011;45916;52.734;6.544;2023-08-06T00:02:49;17.10;;;14.68;;
60038;SDS011;45916;52.734;6.544;2023-08-06T00:05:15;29.17;;;15.93;;
60038;SDS011;45916;52.734;6.544;2023-08-06T00:07:46;17.38;;;15.55;;
60038;SDS011;45916;52.734;6.544;2023-08-06T00:10:15;17.10;;;14.85;;
60038;SDS011;45916;52.734;6.544;2023-08-06T00:12:42;17.50;;;14.50;;
60038;SDS011;45916;52.734;6.544;2023-08-06T00:15:09;19.77;;;15.00;;
60038;SDS011;45916;52.734;6.544;2023-08-06T00:17:35;18.73;;;14.60;;
60038;SDS011;45916;52.734;6.544;2023-08-06T00:20:01;17.67;;;15.23;;
60038;SDS011;45916;52.734;6.544;2023-08-06T00:22:38;16.27;;;14.65;;
60038;SDS011;45916;52.734;6.544;2023-08-06T00:25:04;17.98;;;15.30;;
60038;SDS011;45916;52.734;6.544;2023-08-06T00:27:31;16.40;;;13.98;;
60038;SDS011;45916;52.734;6.544;2023-08-06T00:29:57;17.00;;;13.75;;
60038;SDS011;45916;52.734;6.544;2023-08-06T00:32:23;15.95;;;14.25;;
60038;SDS011;45916;52.734;6.544;2023-08-06T00:34:49;16.63;;;14.57;;
60038;SDS011;45916;52.734;6.544;2023-08-06T00:37:18;17.92;;;14.40;;
60038;SDS011;45916;52.734;6.544;2023-08-06T00:39:44;15.55;;;13.15;;
60038;SDS011;45916;52.734;6.544;2023-08-06T00:42:10;14.90;;;13.32;;
60038;SDS011;45916;52.734;6.544;2023-08-06T00:44:36;17.05;;;14.80;;
60038;SDS011;45916;52.734;6.544;2023-08-06T00:47:03;17.92;;;14.10;;
60038;SDS011;45916;52.734;6.544;2023-08-06T00:49:30;15.15;;;13.55;;
60038;SDS011;45916;52.734;6.544;2023-08-06T00:51:55;19.52;;;15.68;;
60038;SDS011;45916;52.734;6.544;2023-08-06T00:54:22;17.08;;;14.82;;
60038;SDS011;45916;52.734;6.544;2023-08-06T00:56:49;20.33;;;15.50;;
60038;SDS011;45916;52.734;6.544;2023-08-06T00:59:15;17.77;;;15.65;;
60038;SDS011;45916;52.734;6.544;2023-08-06T01:01:41;19.20;;;16.60;;
60038;SDS011;45916;52.734;6.544;2023-08-06T01:04:07;18.48;;;16.50;;
60038;SDS011;45916;52.734;6.544;2023-08-06T01:06:44;19.85;;;16.90;;
60038;SDS011;45916;52.734;6.544;2023-08-06T01:12:14;19.27;;;17.27;;
60038;SDS011;45916;52.734;6.544;2023-08-06T01:14:55;19.48;;;16.77;;
60038;SDS011;45916;52.734;6.544;2023-08-06T01:17:30;20.17;;;18.08;;
60038;SDS011;45916;52.734;6.544;2023-08-06T01:19:56;20.35;;;17.65;;
60038;SDS011;45916;52.734;6.544;2023-08-06T01:22:21;20.58;;;18.10;;
60038;SDS011;45916;52.734;6.544;2023-08-06T01:24:48;20.40;;;17.60;;
60038;SDS011;45916;52.734;6.544;2023-08-06T01:32:34;20.60;;;17.95;;
60038;SDS011;45916;52.734;6.544;2023-08-06T01:35:04;20.33;;;17.85;;
60038;SDS011;45916;52.734;6.544;2023-08-06T01:37:30;20.65;;;18.08;;
60038;SDS011;45916;52.734;6.544;2023-08-06T01:39:57;21.58;;;17.95;;
60038;SDS011;45916;52.734;6.544;2023-08-06T01:42:23;20.63;;;17.08;;
60038;SDS011;45916;52.734;6.544;2023-08-06T01:44:48;21.98;;;18.50;;
60038;SDS011;45916;52.734;6.544;2023-08-06T01:47:14;22.58;;;18.55;;
60038;SDS011;45916;52.734;6.544;2023-08-06T01:49:40;20.73;;;18.48;;
60038;SDS011;45916;52.734;6.544;2023-08-06T01:52:05;21.05;;;17.60;;
60038;SDS011;45916;52.734;6.544;2023-08-06T01:54:31;19.30;;;17.15;;
60038;SDS011;45916;52.734;6.544;2023-08-06T01:56:57;19.63;;;16.70;;
60038;SDS011;45916;52.734;6.544;2023-08-06T01:59:23;20.23;;;17.10;;
60038;SDS011;45916;52.734;6.544;2023-08-06T02:01:49;18.40;;;16.55;;
60038;SDS011;45916;52.734;6.544;2023-08-06T02:04:15;19.80;;;17.08;;
60038;SDS011;45916;52.734;6.544;2023-08-06T02:06:40;20.65;;;17.23;;
60038;SDS011;45916;52.734;6.544;2023-08-06T02:09:06;19.38;;;16.83;;
60038;SDS011;45916;52.734;6.544;2023-08-06T02:11:32;19.98;;;17.83;;
60038;SDS011;45916;52.734;6.544;2023-08-06T02:13:57;19.95;;;17.20;;
60038;SDS011;45916;52.734;6.544;2023-08-06T02:16:23;19.50;;;17.40;;
60038;SDS011;45916;52.734;6.544;2023-08-06T02:18:48;19.95;;;17.33;;
60038;SDS011;45916;52.734;6.544;2023-08-06T02:21:14;19.88;;;16.75;;
60038;SDS011;45916;52.734;6.544;2023-08-06T02:23:40;21.08;;;18.80;;
60038;SDS011;45916;52.734;6.544;2023-08-06T02:26:05;23.83;;;17.25;;
60038;SDS011;45916;52.734;6.544;2023-08-06T02:28:31;19.55;;;17.35;;
60038;SDS011;45916;52.734;6.544;2023-08-06T02:30:57;23.02;;;18.17;;
60038;SDS011;45916;52.734;6.544;2023-08-06T02:33:23;22.85;;;17.95;;
60038;SDS011;45916;52.734;6.544;2023-08-06T02:35:49;19.65;;;16.67;;
60038;SDS011;45916;52.734;6.544;2023-08-06T02:38:15;21.05;;;18.85;;
60038;SDS011;45916;52.734;6.544;2023-08-06T02:40:46;18.63;;;16.67;;
60038;SDS011;45916;52.734;6.544;2023-08-06T02:43:12;19.88;;;16.85;;
60038;SDS011;45916;52.734;6.544;2023-08-06T02:45:38;19.40;;;16.90;;
60038;SDS011;45916;52.734;6.544;2023-08-06T02:48:04;18.83;;;16.80;;
60038;SDS011;45916;52.734;6.544;2023-08-06T02:50:30;20.58;;;17.10;;
60038;SDS011;45916;52.734;6.544;2023-08-06T02:52:56;20.08;;;17.63;;
60038;SDS011;45916;52.734;6.544;2023-08-06T02:55:22;20.48;;;16.80;;
60038;SDS011;45916;52.734;6.544;2023-08-06T02:57:47;19.80;;;16.35;;
60038;SDS011;45916;52.734;6.544;2023-08-06T03:00:13;19.02;;;16.13;;
60038;SDS011;45916;52.734;6.544;2023-08-06T03:02:39;20.35;;;17.33;;
60038;SDS011;45916;52.734;6.544;2023-08-06T03:05:04;19.02;;;17.00;;
60038;SDS011;45916;52.734;6.544;2023-08-06T03:07:31;19.38;;;17.38;;
60038;SDS011;45916;52.734;6.544;2023-08-06T03:09:58;18.58;;;16.45;;
60038;SDS011;45916;52.734;6.544;2023-08-06T03:12:26;22.02;;;19.20;;
60038;SDS011;45916;52.734;6.544;2023-08-06T03:14:52;19.48;;;17.50;;
60038;SDS011;45916;52.734;6.544;2023-08-06T03:17:18;20.08;;;17.10;;
60038;SDS011;45916;52.734;6.544;2023-08-06T03:19:43;22.73;;;19.08;;
60038;SDS011;45916;52.734;6.544;2023-08-06T03:22:09;19.42;;;17.25;;
60038;SDS011;45916;52.734;6.544;2023-08-06T03:24:35;19.70;;;17.70;;
60038;SDS011;45916;52.734;6.544;2023-08-06T03:27:01;24.15;;;19.40;;
60038;SDS011;45916;52.734;6.544;2023-08-06T03:29:26;21.63;;;19.33;;
60038;SDS011;45916;52.734;6.544;2023-08-06T03:31:52;22.05;;;19.15;;
60038;SDS011;45916;52.734;6.544;2023-08-06T03:34:18;24.55;;;19.23;;
60038;SDS011;45916;52.734;6.544;2023-08-06T03:36:44;23.40;;;20.55;;
60038;SDS011;45916;52.734;6.544;2023-08-06T03:39:09;22.65;;;19.63;;
60038;SDS011;45916;52.734;6.544;2023-08-06T03:41:35;25.75;;;20.23;;
60038;SDS011;45916;52.734;6.544;2023-08-06T03:44:01;27.80;;;21.33;;
60038;SDS011;45916;52.734;6.544;2023-08-06T03:46:29;23.33;;;20.10;;
60038;SDS011;45916;52.734;6.544;2023-08-06T03:48:58;23.80;;;19.95;;
60038;SDS011;45916;52.734;6.544;2023-08-06T03:53:52;26.08;;;20.63;;
60038;SDS011;45916;52.734;6.544;2023-08-06T03:56:18;25.88;;;22.13;;
60038;SDS011;45916;52.734;6.544;2023-08-06T03:58:44;28.70;;;23.73;;
60038;SDS011;45916;52.734;6.544;2023-08-06T04:01:09;24.10;;;20.25;;
60038;SDS011;45916;52.734;6.544;2023-08-06T04:03:35;24.65;;;21.45;;
60038;SDS011;45916;52.734;6.544;2023-08-06T04:06:04;23.63;;;19.27;;
60038;SDS011;45916;52.734;6.544;2023-08-06T04:08:30;23.90;;;20.67;;
60038;SDS011;45916;52.734;6.544;2023-08-06T04:10:55;21.25;;;18.25;;
60038;SDS011;45916;52.734;6.544;2023-08-06T04:13:21;21.15;;;18.75;;
60038;SDS011;45916;52.734;6.544;2023-08-06T04:15:47;20.75;;;18.13;;
60038;SDS011;45916;52.734;6.544;2023-08-06T04:18:13;22.60;;;19.23;;
60038;SDS011;45916;52.734;6.544;2023-08-06T04:20:46;20.40;;;18.17;;
60038;SDS011;45916;52.734;6.544;2023-08-06T04:23:14;19.27;;;17.27;;
60038;SDS011;45916;52.734;6.544;2023-08-06T04:25:40;20.13;;;17.38;;
60038;SDS011;45916;52.734;6.544;2023-08-06T04:28:06;20.77;;;18.60;;
60038;SDS011;45916;52.734;6.544;2023-08-06T04:30:32;22.15;;;17.63;;
60038;SDS011;45916;52.734;6.544;2023-08-06T04:32:58;20.27;;;18.08;;
60038;SDS011;45916;52.734;6.544;2023-08-06T04:35:24;21.02;;;18.13;;
60038;SDS011;45916;52.734;6.544;2023-08-06T04:37:49;20.35;;;17.30;;
60038;SDS011;45916;52.734;6.544;2023-08-06T04:40:15;20.50;;;18.27;;
60038;SDS011;45916;52.734;6.544;2023-08-06T04:42:41;26.75;;;18.90;;
60038;SDS011;45916;52.734;6.544;2023-08-06T04:45:07;22.13;;;18.52;;
60038;SDS011;45916;52.734;6.544;2023-08-06T04:47:33;21.85;;;17.30;;
60038;SDS011;45916;52.734;6.544;2023-08-06T04:49:58;21.10;;;17.23;;
60038;SDS011;45916;52.734;6.544;2023-08-06T04:52:24;19.75;;;17.63;;
60038;SDS011;45916;52.734;6.544;2023-08-06T04:54:53;20.88;;;17.52;;
60038;SDS011;45916;52.734;6.544;2023-08-06T04:57:19;19.17;;;17.17;;
60038;SDS011;45916;52.734;6.544;2023-08-06T04:59:45;19.92;;;16.30;;
60038;SDS011;45916;52.734;6.544;2023-08-06T05:02:11;18.98;;;16.08;;
60038;SDS011;45916;52.734;6.544;2023-08-06T05:04:36;18.08;;;15.65;;
60038;SDS011;45916;52.734;6.544;2023-08-06T05:07:02;17.73;;;15.98;;
60038;SDS011;45916;52.734;6.544;2023-08-06T05:09:28;21.05;;;16.27;;
60038;SDS011;45916;52.734;6.544;2023-08-06T05:11:54;18.75;;;16.77;;
60038;SDS011;45916;52.734;6.544;2023-08-06T05:14:20;19.08;;;16.35;;
60038;SDS011;45916;52.734;6.544;2023-08-06T05:16:45;18.35;;;16.52;;
60038;SDS011;45916;52.734;6.544;2023-08-06T05:19:11;18.80;;;16.85;;
60038;SDS011;45916;52.734;6.544;2023-08-06T05:21:37;18.38;;;16.48;;
60038;SDS011;45916;52.734;6.544;2023-08-06T05:24:02;18.23;;;16.33;;
60038;SDS011;45916;52.734;6.544;2023-08-06T05:26:28;19.08;;;16.25;;
60038;SDS011;45916;52.734;6.544;2023-08-06T05:28:54;18.00;;;16.00;;
60038;SDS011;45916;52.734;6.544;2023-08-06T05:31:19;19.48;;;17.48;;
60038;SDS011;45916;52.734;6.544;2023-08-06T05:33:45;20.42;;;16.35;;
60038;SDS011;45916;52.734;6.544;2023-08-06T05:36:11;18.10;;;15.85;;
60038;SDS011;45916;52.734;6.544;2023-08-06T05:38:37;17.73;;;15.82;;
60038;SDS011;45916;52.734;6.544;2023-08-06T05:41:02;16.35;;;14.65;;
60038;SDS011;45916;52.734;6.544;2023-08-06T05:43:28;16.90;;;15.15;;
60038;SDS011;45916;52.734;6.544;2023-08-06T05:45:55;16.52;;;14.80;;
60038;SDS011;45916;52.734;6.544;2023-08-06T05:48:21;16.92;;;15.13;;
60038;SDS011;45916;52.734;6.544;2023-08-06T05:50:49;16.38;;;14.77;;
60038;SDS011;45916;52.734;6.544;2023-08-06T05:53:17;17.23;;;15.13;;
60038;SDS011;45916;52.734;6.544;2023-08-06T05:55:42;15.95;;;14.23;;
60038;SDS011;45916;52.734;6.544;2023-08-06T05:58:08;16.80;;;15.02;;
60038;SDS011;45916;52.734;6.544;2023-08-06T06:00:34;15.57;;;13.95;;
60038;SDS011;45916;52.734;6.544;2023-08-06T06:03:00;16.40;;;14.57;;
60038;SDS011;45916;52.734;6.544;2023-08-06T06:05:27;15.95;;;13.82;;
60038;SDS011;45916;52.734;6.544;2023-08-06T06:07:52;14.75;;;13.35;;
60038;SDS011;45916;52.734;6.544;2023-08-06T06:10:18;15.13;;;13.43;;
60038;SDS011;45916;52.734;6.544;2023-08-06T06:12:44;15.70;;;14.18;;
60038;SDS011;45916;52.734;6.544;2023-08-06T06:15:10;17.38;;;15.68;;
60038;SDS011;45916;52.734;6.544;2023-08-06T06:17:35;17.30;;;15.50;;
60038;SDS011;45916;52.734;6.544;2023-08-06T06:20:01;17.92;;;16.02;;
60038;SDS011;45916;52.734;6.544;2023-08-06T06:22:29;17.17;;;15.45;;
60038;SDS011;45916;52.734;6.544;2023-08-06T06:24:55;16.70;;;14.95;;
60038;SDS011;45916;52.734;6.544;2023-08-06T06:27:20;17.45;;;15.73;;
60038;SDS011;45916;52.734;6.544;2023-08-06T06:29:46;17.88;;;16.13;;
60038;SDS011;45916;52.734;6.544;2023-08-06T06:32:12;18.95;;;16.88;;
60038;SDS011;45916;52.734;6.544;2023-08-06T06:34:37;18.80;;;16.90;;
60038;SDS011;45916;52.734;6.544;2023-08-06T06:37:03;18.92;;;17.02;;
60038;SDS011;45916;52.734;6.544;2023-08-06T06:39:29;19.52;;;17.45;;
60038;SDS011;45916;52.734;6.544;2023-08-06T06:41:55;18.08;;;16.17;;
60038;SDS011;45916;52.734;6.544;2023-08-06T06:44:21;19.30;;;17.35;;
60038;SDS011;45916;52.734;6.544;2023-08-06T06:46:46;18.40;;;16.48;;
60038;SDS011;45916;52.734;6.544;2023-08-06T06:49:12;20.33;;;18.25;;
60038;SDS011;45916;52.734;6.544;2023-08-06T06:51:38;18.52;;;16.83;;
60038;SDS011;45916;52.734;6.544;2023-08-06T06:54:03;19.45;;;17.48;;
60038;SDS011;45916;52.734;6.544;2023-08-06T06:56:29;20.05;;;17.98;;
60038;SDS011;45916;52.734;6.544;2023-08-06T06:58:55;21.33;;;18.42;;
60038;SDS011;45916;52.734;6.544;2023-08-06T07:01:20;20.35;;;18.35;;
60038;SDS011;45916;52.734;6.544;2023-08-06T07:03:46;19.75;;;17.75;;
60038;SDS011;45916;52.734;6.544;2023-08-06T07:06:12;19.67;;;17.67;;
60038;SDS011;45916;52.734;6.544;2023-08-06T07:08:38;21.23;;;18.95;;
60038;SDS011;45916;52.734;6.544;2023-08-06T07:11:04;23.13;;;18.35;;
60038;SDS011;45916;52.734;6.544;2023-08-06T07:13:31;19.87;;;17.87;;
60038;SDS011;45916;52.734;6.544;2023-08-06T07:15:57;19.92;;;17.83;;
60038;SDS011;45916;52.734;6.544;2023-08-06T07:18:24;20.23;;;18.13;;
60038;SDS011;45916;52.734;6.544;2023-08-06T07:20:50;21.60;;;19.40;;
60038;SDS011;45916;52.734;6.544;2023-08-06T07:23:16;20.60;;;18.60;;
60038;SDS011;45916;52.734;6.544;2023-08-06T07:25:43;20.92;;;17.77;;
60038;SDS011;45916;52.734;6.544;2023-08-06T07:28:09;19.38;;;17.38;;
60038;SDS011;45916;52.734;6.544;2023-08-06T07:30:38;20.02;;;17.23;;
60038;SDS011;45916;52.734;6.544;2023-08-06T07:33:04;21.52;;;19.38;;
60038;SDS011;45916;52.734;6.544;2023-08-06T07:35:30;18.25;;;16.35;;
60038;SDS011;45916;52.734;6.544;2023-08-06T07:37:56;19.52;;;17.45;;
60038;SDS011;45916;52.734;6.544;2023-08-06T07:40:21;20.08;;;17.70;;
60038;SDS011;45916;52.734;6.544;2023-08-06T07:42:47;20.20;;;17.98;;
60038;SDS011;45916;52.734;6.544;2023-08-06T07:45:13;18.50;;;16.58;;
60038;SDS011;45916;52.734;6.544;2023-08-06T07:47:39;19.45;;;17.52;;
60038;SDS011;45916;52.734;6.544;2023-08-06T07:50:06;18.27;;;16.48;;
60038;SDS011;45916;52.734;6.544;2023-08-06T07:52:31;17.52;;;15.75;;
60038;SDS011;45916;52.734;6.544;2023-08-06T07:54:57;17.02;;;15.32;;
60038;SDS011;45916;52.734;6.544;2023-08-06T07:57:23;16.52;;;14.93;;
60038;SDS011;45916;52.734;6.544;2023-08-06T07:59:49;16.15;;;14.38;;
60038;SDS011;45916;52.734;6.544;2023-08-06T08:02:15;16.13;;;14.30;;
60038;SDS011;45916;52.734;6.544;2023-08-06T08:04:41;15.35;;;13.82;;
60038;SDS011;45916;52.734;6.544;2023-08-06T08:07:07;15.93;;;14.43;;
60038;SDS011;45916;52.734;6.544;2023-08-06T08:09:34;15.63;;;14.02;;
60038;SDS011;45916;52.734;6.544;2023-08-06T08:12:01;15.57;;;13.98;;
60038;SDS011;45916;52.734;6.544;2023-08-06T08:14:28;15.90;;;14.07;;
60038;SDS011;45916;52.734;6.544;2023-08-06T08:16:54;15.68;;;14.13;;
60038;SDS011;45916;52.734;6.544;2023-08-06T08:19:20;15.85;;;14.23;;
60038;SDS011;45916;52.734;6.544;2023-08-06T08:21:46;14.57;;;13.07;;
60038;SDS011;45916;52.734;6.544;2023-08-06T08:24:12;14.27;;;12.80;;
60038;SDS011;45916;52.734;6.544;2023-08-06T08:26:37;15.13;;;13.55;;
60038;SDS011;45916;52.734;6.544;2023-08-06T08:29:03;14.55;;;12.95;;
60038;SDS011;45916;52.734;6.544;2023-08-06T08:31:29;14.07;;;12.73;;
60038;SDS011;45916;52.734;6.544;2023-08-06T08:33:54;15.05;;;13.65;;
60038;SDS011;45916;52.734;6.544;2023-08-06T08:36:20;15.00;;;13.50;;
60038;SDS011;45916;52.734;6.544;2023-08-06T08:38:46;14.75;;;13.20;;
60038;SDS011;45916;52.734;6.544;2023-08-06T08:41:12;14.20;;;12.80;;
60038;SDS011;45916;52.734;6.544;2023-08-06T08:43:38;13.50;;;12.15;;
60038;SDS011;45916;52.734;6.544;2023-08-06T08:46:06;13.07;;;11.77;;
60038;SDS011;45916;52.734;6.544;2023-08-06T08:48:35;11.82;;;10.73;;
60038;SDS011;45916;52.734;6.544;2023-08-06T08:51:01;13.15;;;11.90;;
60038;SDS011;45916;52.734;6.544;2023-08-06T08:53:28;12.93;;;11.70;;
60038;SDS011;45916;52.734;6.544;2023-08-06T08:55:54;12.13;;;10.82;;
60038;SDS011;45916;52.734;6.544;2023-08-06T08:58:20;11.05;;;9.95;;
60038;SDS011;45916;52.734;6.544;2023-08-06T09:00:46;11.43;;;10.23;;
60038;SDS011;45916;52.734;6.544;2023-08-06T09:03:13;11.10;;;9.68;;
60038;SDS011;45916;52.734;6.544;2023-08-06T09:05:43;10.88;;;9.55;;
60038;SDS011;45916;52.734;6.544;2023-08-06T09:08:11;10.70;;;9.70;;
60038;SDS011;45916;52.734;6.544;2023-08-06T09:10:41;9.45;;;8.45;;
60038;SDS011;45916;52.734;6.544;2023-08-06T09:13:08;11.40;;;9.45;;
60038;SDS011;45916;52.734;6.544;2023-08-06T09:15:34;9.77;;;8.70;;
60038;SDS011;45916;52.734;6.544;2023-08-06T09:18:00;10.85;;;9.32;;
60038;SDS011;45916;52.734;6.544;2023-08-06T09:20:34;10.00;;;8.25;;
60038;SDS011;45916;52.734;6.544;2023-08-06T09:23:06;9.07;;;8.18;;
60038;SDS011;45916;52.734;6.544;2023-08-06T09:25:37;10.13;;;9.07;;
60038;SDS011;45916;52.734;6.544;2023-08-06T09:28:04;10.52;;;9.27;;
60038;SDS011;45916;52.734;6.544;2023-08-06T09:30:31;10.27;;;9.18;;
60038;SDS011;45916;52.734;6.544;2023-08-06T09:35:24;11.80;;;10.07;;
60038;SDS011;45916;52.734;6.544;2023-08-06T09:37:52;9.30;;;8.40;;
60038;SDS011;45916;52.734;6.544;2023-08-06T09:40:25;10.00;;;9.00;;
60038;SDS011;45916;52.734;6.544;2023-08-06T09:42:57;9.13;;;8.18;;
60038;SDS011;45916;52.734;6.544;2023-08-06T09:45:28;10.38;;;9.35;;
60038;SDS011;45916;52.734;6.544;2023-08-06T09:47:57;9.88;;;8.95;;
60038;SDS011;45916;52.734;6.544;2023-08-06T09:50:23;9.30;;;8.40;;
60038;SDS011;45916;52.734;6.544;2023-08-06T09:52:55;9.20;;;8.10;;
60038;SDS011;45916;52.734;6.544;2023-08-06T09:55:21;10.20;;;9.13;;
60038;SDS011;45916;52.734;6.544;2023-08-06T09:57:50;9.35;;;8.45;;
60038;SDS011;45916;52.734;6.544;2023-08-06T10:00:16;9.23;;;8.32;;
60038;SDS011;45916;52.734;6.544;2023-08-06T10:02:42;10.70;;;9.63;;
60038;SDS011;45916;52.734;6.544;2023-08-06T10:05:10;10.48;;;9.48;;
60038;SDS011;45916;52.734;6.544;2023-08-06T10:07:36;10.70;;;9.43;;
60038;SDS011;45916;52.734;6.544;2023-08-06T10:10:04;10.43;;;9.32;;
60038;SDS011;45916;52.734;6.544;2023-08-06T10:12:32;10.05;;;9.05;;
60038;SDS011;45916;52.734;6.544;2023-08-06T10:15:12;10.13;;;9.18;;
60038;SDS011;45916;52.734;6.544;2023-08-06T10:17:41;9.63;;;8.73;;
60038;SDS011;45916;52.734;6.544;2023-08-06T10:20:08;9.00;;;8.20;;
60038;SDS011;45916;52.734;6.544;2023-08-06T10:22:35;9.52;;;8.48;;
60038;SDS011;45916;52.734;6.544;2023-08-06T10:25:01;9.13;;;8.23;;
60038;SDS011;45916;52.734;6.544;2023-08-06T10:27:40;8.10;;;7.30;;
60038;SDS011;45916;52.734;6.544;2023-08-06T10:33:03;8.00;;;7.20;;
60038;SDS011;45916;52.734;6.544;2023-08-06T10:35:42;8.80;;;7.93;;
60038;SDS011;45916;52.734;6.544;2023-08-06T10:38:14;8.27;;;6.72;;
60038;SDS011;45916;52.734;6.544;2023-08-06T10:41:00;6.88;;;5.88;;
60038;SDS011;45916;52.734;6.544;2023-08-06T10:46:03;8.88;;;7.82;;
60038;SDS011;45916;52.734;6.544;2023-08-06T10:48:35;8.93;;;8.00;;
60038;SDS011;45916;52.734;6.544;2023-08-06T10:51:01;8.60;;;7.53;;
60038;SDS011;45916;52.734;6.544;2023-08-06T10:53:28;8.80;;;7.90;;
60038;SDS011;45916;52.734;6.544;2023-08-06T10:55:54;9.82;;;8.27;;
60038;SDS011;45916;52.734;6.544;2023-08-06T10:58:20;9.55;;;8.57;;
60038;SDS011;45916;52.734;6.544;2023-08-06T11:00:45;8.77;;;7.88;;
60038;SDS011;45916;52.734;6.544;2023-08-06T11:03:11;7.65;;;6.85;;
60038;SDS011;45916;52.734;6.544;2023-08-06T11:05:37;7.25;;;6.30;;
60038;SDS011;45916;52.734;6.544;2023-08-06T11:08:04;7.45;;;6.22;;
60038;SDS011;45916;52.734;6.544;2023-08-06T11:10:32;7.25;;;6.22;;
60038;SDS011;45916;52.734;6.544;2023-08-06T11:13:02;10.80;;;6.38;;
60038;SDS011;45916;52.734;6.544;2023-08-06T11:15:28;9.20;;;6.13;;
60038;SDS011;45916;52.734;6.544;2023-08-06T11:17:55;10.35;;;6.80;;
60038;SDS011;45916;52.734;6.544;2023-08-06T11:20:21;14.70;;;8.13;;
60038;SDS011;45916;52.734;6.544;2023-08-06T11:22:50;8.90;;;7.05;;
60038;SDS011;45916;52.734;6.544;2023-08-06T11:25:15;9.50;;;6.30;;
60038;SDS011;45916;52.734;6.544;2023-08-06T11:27:41;5.78;;;4.93;;
60038;SDS011;45916;52.734;6.544;2023-08-06T11:30:07;6.75;;;6.05;;
60038;SDS011;45916;52.734;6.544;2023-08-06T12:54:53;10.55;;;7.13;;
60038;SDS011;45916;52.734;6.544;2023-08-06T12:57:19;10.40;;;5.53;;
60038;SDS011;45916;52.734;6.544;2023-08-06T12:59:44;10.45;;;6.03;;
60038;SDS011;45916;52.734;6.544;2023-08-06T13:02:10;8.73;;;5.15;;
60038;SDS011;45916;52.734;6.544;2023-08-06T13:04:36;10.23;;;6.90;;
60038;SDS011;45916;52.734;6.544;2023-08-06T13:07:01;23.88;;;8.45;;
60038;SDS011;45916;52.734;6.544;2023-08-06T13:09:27;7.05;;;5.22;;
60038;SDS011;45916;52.734;6.544;2023-08-06T13:11:53;8.10;;;6.38;;
60038;SDS011;45916;52.734;6.544;2023-08-06T13:14:19;8.70;;;6.75;;
60038;SDS011;45916;52.734;6.544;2023-08-06T13:16:44;13.65;;;7.85;;
60038;SDS011;45916;52.734;6.544;2023-08-06T13:19:10;13.65;;;7.75;;
60038;SDS011;45916;52.734;6.544;2023-08-06T13:24:07;9.65;;;6.68;;
60038;SDS011;45916;52.734;6.544;2023-08-06T13:26:33;8.90;;;6.75;;
60038;SDS011;45916;52.734;6.544;2023-08-06T13:28:59;9.05;;;7.38;;
60038;SDS011;45916;52.734;6.544;2023-08-06T13:31:26;8.85;;;6.85;;
60038;SDS011;45916;52.734;6.544;2023-08-06T13:33:54;9.57;;;6.80;;
60038;SDS011;45916;52.734;6.544;2023-08-06T13:36:20;8.80;;;6.65;;
60038;SDS011;45916;52.734;6.544;2023-08-06T13:38:47;8.90;;;6.55;;
60038;SDS011;45916;52.734;6.544;2023-08-06T13:41:12;29.25;;;26.30;;
60038;SDS011;45916;52.734;6.544;2023-08-06T13:43:38;25.88;;;23.08;;
60038;SDS011;45916;52.734;6.544;2023-08-06T13:46:04;26.23;;;12.63;;
60038;SDS011;45916;52.734;6.544;2023-08-06T13:48:30;11.50;;;7.03;;
60038;SDS011;45916;52.734;6.544;2023-08-06T13:50:56;11.38;;;7.63;;
60038;SDS011;45916;52.734;6.544;2023-08-06T13:53:21;8.95;;;6.78;;
60038;SDS011;45916;52.734;6.544;2023-08-06T13:55:47;7.95;;;6.00;;
60038;SDS011;45916;52.734;6.544;2023-08-06T13:58:13;8.93;;;7.07;;
60038;SDS011;45916;52.734;6.544;2023-08-06T14:00:38;7.80;;;6.45;;
60038;SDS011;45916;52.734;6.544;2023-08-06T14:03:04;8.73;;;6.15;;
60038;SDS011;45916;52.734;6.544;2023-08-06T14:05:30;7.35;;;5.68;;
60038;SDS011;45916;52.734;6.544;2023-08-06T14:07:55;7.30;;;5.30;;
60038;SDS011;45916;52.734;6.544;2023-08-06T14:10:21;7.45;;;5.32;;
60038;SDS011;45916;52.734;6.544;2023-08-06T14:12:47;7.57;;;5.47;;
60038;SDS011;45916;52.734;6.544;2023-08-06T14:15:12;7.72;;;5.60;;
60038;SDS011;45916;52.734;6.544;2023-08-06T14:17:38;7.25;;;5.30;;
60038;SDS011;45916;52.734;6.544;2023-08-06T14:20:05;6.38;;;5.30;;
60038;SDS011;45916;52.734;6.544;2023-08-06T14:22:33;6.75;;;5.18;;
60038;SDS011;45916;52.734;6.544;2023-08-06T14:24:59;6.53;;;5.47;;
60038;SDS011;45916;52.734;6.544;2023-08-06T14:27:24;8.45;;;6.22;;
60038;SDS011;45916;52.734;6.544;2023-08-06T14:29:50;9.32;;;5.70;;
60038;SDS011;45916;52.734;6.544;2023-08-06T14:32:16;7.28;;;4.95;;
60038;SDS011;45916;52.734;6.544;2023-08-06T14:34:46;7.45;;;5.38;;
60038;SDS011;45916;52.734;6.544;2023-08-06T14:37:12;8.95;;;5.95;;
60038;SDS011;45916;52.734;6.544;2023-08-06T14:39:38;7.72;;;5.65;;
60038;SDS011;45916;52.734;6.544;2023-08-06T14:42:04;8.13;;;5.63;;
60038;SDS011;45916;52.734;6.544;2023-08-06T14:44:30;7.45;;;5.60;;
60038;SDS011;45916;52.734;6.544;2023-08-06T14:46:55;7.55;;;6.25;;
60038;SDS011;45916;52.734;6.544;2023-08-06T14:49:21;8.15;;;6.47;;
60038;SDS011;45916;52.734;6.544;2023-08-06T14:51:48;10.05;;;6.88;;
60038;SDS011;45916;52.734;6.544;2023-08-06T14:54:14;9.50;;;7.20;;
60038;SDS011;45916;52.734;6.544;2023-08-06T14:56:39;8.88;;;6.78;;
60038;SDS011;45916;52.734;6.544;2023-08-06T14:59:05;8.10;;;6.72;;
60038;SDS011;45916;52.734;6.544;2023-08-06T15:01:31;9.52;;;6.65;;
60038;SDS011;45916;52.734;6.544;2023-08-06T15:03:57;8.80;;;6.50;;
60038;SDS011;45916;52.734;6.544;2023-08-06T15:06:23;10.00;;;7.50;;
60038;SDS011;45916;52.734;6.544;2023-08-06T15:08:49;8.57;;;7.13;;
60038;SDS011;45916;52.734;6.544;2023-08-06T15:11:15;8.85;;;7.07;;
60038;SDS011;45916;52.734;6.544;2023-08-06T15:13:40;7.97;;;6.15;;
60038;SDS011;45916;52.734;6.544;2023-08-06T15:16:06;7.60;;;5.80;;
60038;SDS011;45916;52.734;6.544;2023-08-06T15:18:32;9.00;;;6.60;;
60038;SDS011;45916;52.734;6.544;2023-08-06T15:20:58;8.82;;;6.10;;
60038;SDS011;45916;52.734;6.544;2023-08-06T15:23:24;8.23;;;6.25;;
60038;SDS011;45916;52.734;6.544;2023-08-06T15:25:50;9.07;;;7.20;;
60038;SDS011;45916;52.734;6.544;2023-08-06T15:28:15;8.65;;;7.60;;
60038;SDS011;45916;52.734;6.544;2023-08-06T15:30:48;9.55;;;8.55;;
60038;SDS011;45916;52.734;6.544;2023-08-06T15:33:15;11.38;;;8.40;;
60038;SDS011;45916;52.734;6.544;2023-08-06T15:35:42;10.90;;;9.35;;
60038;SDS011;45916;52.734;6.544;2023-08-06T15:38:07;9.98;;;8.70;;
60038;SDS011;45916;52.734;6.544;2023-08-06T15:40:33;10.57;;;8.57;;
60038;SDS011;45916;52.734;6.544;2023-08-06T15:42:59;11.50;;;9.35;;
60038;SDS011;45916;52.734;6.544;2023-08-06T15:45:24;10.15;;;8.60;;
60038;SDS011;45916;52.734;6.544;2023-08-06T15:47:50;12.20;;;9.18;;
60038;SDS011;45916;52.734;6.544;2023-08-06T15:50:16;9.90;;;8.15;;
60038;SDS011;45916;52.734;6.544;2023-08-06T15:52:42;10.88;;;8.85;;
60038;SDS011;45916;52.734;6.544;2023-08-06T15:55:07;11.50;;;9.02;;
60038;SDS011;45916;52.734;6.544;2023-08-06T15:57:34;11.20;;;9.10;;
60038;SDS011;45916;52.734;6.544;2023-08-06T16:00:00;12.45;;;8.77;;
60038;SDS011;45916;52.734;6.544;2023-08-06T16:02:27;11.02;;;9.43;;
60038;SDS011;45916;52.734;6.544;2023-08-06T16:04:53;10.68;;;8.50;;
60038;SDS011;45916;52.734;6.544;2023-08-06T16:07:19;11.68;;;8.82;;